Time;durP1;ratioP1;P1;durP2;ratioP2;P2;SDS_P1;SDS_P2;PMS_P1;PMS_P2;Temp;Humidity;BMP_temperature;BMP_pressure;BME280_temperature;BME280_humidity;BME280_pressure;Samples;Min_cycle;Max_cycle;Signal;HPM_P1;HPM_P2
2022/12/26 00:01:17;;;;;;;4.20;2.47;;;;;;;;;;5117670;28;20469;-57
2022/12/26 00:03:43;;;;;;;3.58;2.28;;;;;;;;;;5117856;28;20035;-57
2022/12/26 00:06:13;;;;;;;3.30;2.33;;;;;;;;;;5118108;28;20028;-57
2022/12/26 00:08:39;;;;;;;4.32;2.53;;;;;;;;;;5117580;28;20043;-55
2022/12/26 00:11:05;;;;;;;3.17;2.20;;;;;;;;;;5117670;28;20026;-53
2022/12/26 00:13:31;;;;;;;4.32;2.45;;;;;;;;;;5117848;28;20031;-54
2022/12/26 00:15:57;;;;;;;3.15;2.40;;;;;;;;;;5117605;28;20419;-56
2022/12/26 00:18:23;;;;;;;3.47;2.10;;;;;;;;;;5117412;28;20365;-55
2022/12/26 00:20:49;;;;;;;4.97;2.65;;;;;;;;;;5117319;28;20027;-56
2022/12/26 00:23:15;;;;;;;3.95;2.63;;;;;;;;;;5117411;28;20099;-57
2022/12/26 00:25:41;;;;;;;3.05;2.17;;;;;;;;;;5117638;28;20019;-56
2022/12/26 00:28:07;;;;;;;3.38;2.50;;;;;;;;;;5117326;28;20495;-57
2022/12/26 00:30:33;;;;;;;3.30;2.72;;;;;;;;;;5117172;28;20126;-56
2022/12/26 00:32:59;;;;;;;3.08;2.05;;;;;;;;;;5117458;28;20031;-56
2022/12/26 00:35:25;;;;;;;3.88;2.20;;;;;;;;;;5117629;28;20026;-57
2022/12/26 00:37:51;;;;;;;3.50;2.13;;;;;;;;;;5117115;28;20076;-56
2022/12/26 00:40:17;;;;;;;4.53;2.75;;;;;;;;;;5115676;28;20023;-55
2022/12/26 00:42:43;;;;;;;3.20;1.98;;;;;;;;;;5117475;28;20031;-57
2022/12/26 00:45:09;;;;;;;5.55;2.42;;;;;;;;;;5116966;28;20030;-57
2022/12/26 00:47:35;;;;;;;4.60;2.45;;;;;;;;;;5116923;28;20073;-57
2022/12/26 00:50:01;;;;;;;3.85;2.47;;;;;;;;;;5116754;28;20035;-57
2022/12/26 00:52:27;;;;;;;5.22;2.40;;;;;;;;;;5117028;28;20023;-57
2022/12/26 00:54:53;;;;;;;3.85;2.40;;;;;;;;;;5116950;28;20023;-57
2022/12/26 00:57:19;;;;;;;3.60;2.58;;;;;;;;;;5116733;28;20031;-57
2022/12/26 00:59:45;;;;;;;2.35;1.48;;;;;;;;;;5116569;28;20047;-59
2022/12/26 01:04:55;;;;;;;3.00;2.40;;;;;;;;;;5116762;28;20053;-55
2022/12/26 01:07:21;;;;;;;6.18;2.05;;;;;;;;;;5116797;28;20098;-55
2022/12/26 01:09:47;;;;;;;2.20;1.52;;;;;;;;;;5116435;28;20027;-57
2022/12/26 01:12:13;;;;;;;3.95;1.65;;;;;;;;;;5116944;28;20028;-56
2022/12/26 01:14:39;;;;;;;3.00;1.80;;;;;;;;;;5116750;28;20031;-57
2022/12/26 01:17:05;;;;;;;2.72;1.88;;;;;;;;;;5116409;28;20020;-54
2022/12/26 01:19:31;;;;;;;2.60;2.03;;;;;;;;;;5116838;28;20118;-57
2022/12/26 01:21:57;;;;;;;2.22;1.50;;;;;;;;;;5116289;28;20028;-58
2022/12/26 01:24:23;;;;;;;3.33;1.60;;;;;;;;;;5116045;28;20032;-53
2022/12/26 01:26:49;;;;;;;3.83;2.28;;;;;;;;;;5115942;28;20419;-53
2022/12/26 01:29:15;;;;;;;2.80;1.88;;;;;;;;;;5116097;28;20377;-57
2022/12/26 01:31:41;;;;;;;2.90;2.00;;;;;;;;;;5116651;28;20441;-55
2022/12/26 01:34:07;;;;;;;2.10;1.58;;;;;;;;;;5116919;28;20038;-56
2022/12/26 01:36:32;;;;;;;5.88;1.90;;;;;;;;;;5116238;28;20024;-56
2022/12/26 01:38:58;;;;;;;3.33;2.20;;;;;;;;;;5115479;28;20028;-55
2022/12/26 01:41:25;;;;;;;3.50;2.10;;;;;;;;;;5116158;28;20030;-56
2022/12/26 01:43:56;;;;;;;3.63;2.20;;;;;;;;;;5116358;28;20036;-57
2022/12/26 01:46:25;;;;;;;3.33;2.40;;;;;;;;;;5116052;28;20076;-55
2022/12/26 01:48:52;;;;;;;4.45;1.98;;;;;;;;;;5115607;28;20063;-57
2022/12/26 01:51:19;;;;;;;2.75;1.90;;;;;;;;;;5115256;28;20023;-55
2022/12/26 01:53:46;;;;;;;2.38;1.60;;;;;;;;;;5115600;28;20480;-55
2022/12/26 01:56:21;;;;;;;3.45;2.47;;;;;;;;;;5115161;28;20020;-55
2022/12/26 01:58:50;;;;;;;3.78;2.00;;;;;;;;;;5115520;28;20031;-57
2022/12/26 02:01:17;;;;;;;3.92;2.05;;;;;;;;;;5115402;28;20366;-56
2022/12/26 02:06:29;;;;;;;2.58;1.75;;;;;;;;;;5115778;28;20031;-57
2022/12/26 02:08:55;;;;;;;3.15;1.92;;;;;;;;;;5115726;28;20034;-57
2022/12/26 02:11:24;;;;;;;4.13;1.77;;;;;;;;;;5115593;28;20020;-58
2022/12/26 02:13:50;;;;;;;2.95;1.63;;;;;;;;;;5115538;28;20023;-57
2022/12/26 02:16:17;;;;;;;2.53;1.65;;;;;;;;;;5115135;28;20056;-54
2022/12/26 02:18:44;;;;;;;3.45;2.08;;;;;;;;;;5115057;28;20372;-53
2022/12/26 02:21:22;;;;;;;2.80;1.90;;;;;;;;;;5115364;28;20020;-54
2022/12/26 02:24:01;;;;;;;2.10;1.13;;;;;;;;;;5115338;28;20089;-55
2022/12/26 02:26:46;;;;;;;2.58;1.88;;;;;;;;;;5115273;28;20077;-55
2022/12/26 02:29:30;;;;;;;4.53;3.00;;;;;;;;;;5114973;28;20115;-56
2022/12/26 02:32:09;;;;;;;2.85;1.73;;;;;;;;;;5114848;28;20023;-56
2022/12/26 02:34:50;;;;;;;3.17;2.05;;;;;;;;;;5114910;28;20127;-57
2022/12/26 02:37:23;;;;;;;3.00;1.63;;;;;;;;;;5114797;28;20093;-56
2022/12/26 02:39:51;;;;;;;4.10;2.22;;;;;;;;;;5114648;28;20057;-56
2022/12/26 02:42:20;;;;;;;2.88;2.35;;;;;;;;;;5114395;28;20081;-56
2022/12/26 02:47:58;;;;;;;2.65;1.75;;;;;;;;;;5114707;28;20089;-58
2022/12/26 03:13:10;;;;;;;3.53;2.05;;;;;;;;;;5114416;28;20149;-54
2022/12/26 03:18:23;;;;;;;2.55;1.58;;;;;;;;;;5114601;28;20075;-56
2022/12/26 03:20:50;;;;;;;3.10;1.65;;;;;;;;;;5114510;28;20095;-58
2022/12/26 03:23:17;;;;;;;8.27;2.45;;;;;;;;;;5115038;28;20106;-57
2022/12/26 03:28:34;;;;;;;2.85;1.40;;;;;;;;;;5114166;28;20157;-57
2022/12/26 03:31:01;;;;;;;3.03;1.95;;;;;;;;;;5114614;28;20102;-58
2022/12/26 03:36:22;;;;;;;4.13;1.33;;;;;;;;;;5114169;28;20072;-56
2022/12/26 03:38:54;;;;;;;2.58;1.55;;;;;;;;;;5114596;28;20032;-55
2022/12/26 04:44:10;;;;;;;3.53;1.95;;;;;;;;;;5117484;28;20085;-55
2022/12/26 04:46:41;;;;;;;2.35;1.52;;;;;;;;;;5117010;28;20499;-55
2022/12/26 04:51:54;;;;;;;2.33;1.35;;;;;;;;;;5117378;28;20084;-57
2022/12/26 04:54:20;;;;;;;3.30;1.90;;;;;;;;;;5117584;28;20421;-53
2022/12/26 04:56:46;;;;;;;2.65;1.85;;;;;;;;;;5116804;28;20054;-53
2022/12/26 04:59:11;;;;;;;2.78;2.05;;;;;;;;;;5117015;28;20346;-55
2022/12/26 05:09:56;;;;;;;3.30;2.28;;;;;;;;;;5116769;28;20073;-55
2022/12/26 05:12:22;;;;;;;5.03;1.35;;;;;;;;;;5116514;28;20024;-56
2022/12/26 05:14:48;;;;;;;2.70;1.60;;;;;;;;;;5117142;28;20111;-52
2022/12/26 05:31:00;;;;;;;3.53;2.03;;;;;;;;;;5116594;28;20125;-56
2022/12/26 05:36:12;;;;;;;2.28;1.63;;;;;;;;;;5116252;28;20090;-57
2022/12/26 05:38:38;;;;;;;2.72;1.42;;;;;;;;;;5116357;28;20031;-55
2022/12/26 05:41:04;;;;;;;2.38;1.35;;;;;;;;;;5115731;28;20031;-57
2022/12/26 05:43:30;;;;;;;3.63;1.83;;;;;;;;;;5115987;28;20024;-56
2022/12/26 05:45:56;;;;;;;4.05;2.25;;;;;;;;;;5116532;28;20111;-57
2022/12/26 05:48:22;;;;;;;2.55;1.77;;;;;;;;;;5115912;28;20107;-56
2022/12/26 05:50:48;;;;;;;2.53;1.55;;;;;;;;;;5115781;28;20039;-56
2022/12/26 05:53:14;;;;;;;1.80;1.25;;;;;;;;;;5116059;28;20106;-57
2022/12/26 05:55:41;;;;;;;3.47;1.92;;;;;;;;;;5116457;28;20019;-57
2022/12/26 05:58:07;;;;;;;2.40;1.75;;;;;;;;;;5115696;28;20028;-58
2022/12/26 06:00:33;;;;;;;3.03;1.58;;;;;;;;;;5115653;28;20114;-58
2022/12/26 06:02:59;;;;;;;3.30;1.33;;;;;;;;;;5115902;28;20048;-57
2022/12/26 06:05:25;;;;;;;2.97;1.83;;;;;;;;;;5116110;28;20103;-57
2022/12/26 06:07:52;;;;;;;3.83;1.80;;;;;;;;;;5115513;28;20118;-57
2022/12/26 06:10:18;;;;;;;3.13;1.98;;;;;;;;;;5115654;28;20366;-55
2022/12/26 06:12:44;;;;;;;2.92;1.52;;;;;;;;;;5115409;28;20069;-57
2022/12/26 06:15:11;;;;;;;2.50;1.50;;;;;;;;;;5115940;28;20441;-57
2022/12/26 06:17:37;;;;;;;3.30;1.77;;;;;;;;;;5115275;28;20039;-57
2022/12/26 06:20:03;;;;;;;2.33;1.15;;;;;;;;;;5115208;28;20043;-57
2022/12/26 06:22:29;;;;;;;4.38;1.30;;;;;;;;;;5115247;28;20027;-57
2022/12/26 06:24:55;;;;;;;3.45;1.67;;;;;;;;;;5115519;28;20445;-57
2022/12/26 06:27:21;;;;;;;3.70;1.63;;;;;;;;;;5115437;28;20034;-57
2022/12/26 06:29:47;;;;;;;2.38;1.55;;;;;;;;;;5115043;28;20039;-57
2022/12/26 06:32:13;;;;;;;2.80;1.70;;;;;;;;;;5114685;28;20032;-58
2022/12/26 06:34:39;;;;;;;3.05;1.65;;;;;;;;;;5115831;28;20065;-55
2022/12/26 06:37:05;;;;;;;2.50;1.40;;;;;;;;;;5114919;28;20034;-55
2022/12/26 06:39:31;;;;;;;2.90;1.42;;;;;;;;;;5115419;28;20031;-57
2022/12/26 06:41:57;;;;;;;3.47;1.58;;;;;;;;;;5115181;28;20098;-58
2022/12/26 06:44:23;;;;;;;2.42;1.73;;;;;;;;;;5115195;28;20097;-56
2022/12/26 06:46:49;;;;;;;5.05;2.00;;;;;;;;;;5114495;28;20023;-56
2022/12/26 06:49:15;;;;;;;2.45;1.48;;;;;;;;;;5114984;28;20039;-58
2022/12/26 06:51:43;;;;;;;3.20;2.00;;;;;;;;;;5114869;28;20104;-56
2022/12/26 06:54:09;;;;;;;2.85;1.55;;;;;;;;;;5115781;28;20039;-57
2022/12/26 06:56:36;;;;;;;2.40;1.08;;;;;;;;;;5114850;28;20103;-57
2022/12/26 06:59:03;;;;;;;2.28;1.25;;;;;;;;;;5114557;28;20038;-57
2022/12/26 07:01:30;;;;;;;3.88;1.85;;;;;;;;;;5114298;28;20028;-56
2022/12/26 07:03:56;;;;;;;2.85;1.85;;;;;;;;;;5114765;28;20031;-56
2022/12/26 07:06:33;;;;;;;1.90;1.13;;;;;;;;;;5114502;28;20023;-56
2022/12/26 07:09:00;;;;;;;2.30;1.40;;;;;;;;;;5114466;28;20035;-58
2022/12/26 07:11:28;;;;;;;5.60;2.22;;;;;;;;;;5114672;28;20028;-56
2022/12/26 07:13:54;;;;;;;2.53;1.50;;;;;;;;;;5114286;28;20023;-56
2022/12/26 07:16:21;;;;;;;8.25;2.42;;;;;;;;;;5114674;28;20077;-56
2022/12/26 07:18:47;;;;;;;3.35;1.77;;;;;;;;;;5114644;28;20423;-55
2022/12/26 07:21:14;;;;;;;4.72;1.77;;;;;;;;;;5114066;28;20110;-57
2022/12/26 07:23:40;;;;;;;2.55;1.73;;;;;;;;;;5114543;28;20032;-57
2022/12/26 07:26:07;;;;;;;3.03;1.83;;;;;;;;;;5114611;28;20035;-57
2022/12/26 07:28:33;;;;;;;3.17;1.50;;;;;;;;;;5114375;28;20165;-57
2022/12/26 07:30:59;;;;;;;2.67;1.77;;;;;;;;;;5114516;28;20023;-58
2022/12/26 07:33:26;;;;;;;4.68;1.58;;;;;;;;;;5114405;28;20016;-57
2022/12/26 07:35:52;;;;;;;2.50;1.50;;;;;;;;;;5114144;28;20486;-57
2022/12/26 07:38:18;;;;;;;4.32;1.98;;;;;;;;;;5114156;28;20020;-53
2022/12/26 07:40:44;;;;;;;2.83;1.52;;;;;;;;;;5114411;28;20114;-57
2022/12/26 07:43:10;;;;;;;3.05;1.95;;;;;;;;;;5114411;28;20076;-57
2022/12/26 07:45:36;;;;;;;2.70;1.80;;;;;;;;;;5114613;28;20035;-57
2022/12/26 07:48:02;;;;;;;2.17;1.27;;;;;;;;;;5113981;28;20024;-56
2022/12/26 07:50:28;;;;;;;2.63;1.48;;;;;;;;;;5116207;28;20080;-57
2022/12/26 07:52:54;;;;;;;1.98;1.15;;;;;;;;;;5118047;28;20028;-56
2022/12/26 07:55:20;;;;;;;2.85;1.58;;;;;;;;;;5118164;28;20381;-57
2022/12/26 07:57:50;;;;;;;4.20;2.13;;;;;;;;;;5118238;28;20062;-57
2022/12/26 08:00:17;;;;;;;4.60;1.95;;;;;;;;;;5118127;28;20032;-57
2022/12/26 08:02:43;;;;;;;3.50;2.17;;;;;;;;;;5117962;28;20161;-57
2022/12/26 08:05:09;;;;;;;3.65;2.20;;;;;;;;;;5118115;28;20019;-56
2022/12/26 08:07:35;;;;;;;3.53;1.95;;;;;;;;;;5117763;28;20472;-56
2022/12/26 08:10:01;;;;;;;3.08;2.08;;;;;;;;;;5117563;28;20126;-56
2022/12/26 08:12:27;;;;;;;3.08;1.92;;;;;;;;;;5117169;28;20027;-56
2022/12/26 08:14:53;;;;;;;2.63;1.60;;;;;;;;;;5117594;28;20138;-54
2022/12/26 08:17:19;;;;;;;3.30;2.30;;;;;;;;;;5117249;28;20027;-56
2022/12/26 08:19:45;;;;;;;4.93;2.22;;;;;;;;;;5118070;28;20035;-55
2022/12/26 08:22:11;;;;;;;4.53;2.20;;;;;;;;;;5117458;28;20030;-55
2022/12/26 08:24:37;;;;;;;4.80;2.35;;;;;;;;;;5117562;28;20028;-56
2022/12/26 08:27:03;;;;;;;3.17;2.45;;;;;;;;;;5117747;28;20357;-56
2022/12/26 08:29:30;;;;;;;6.22;2.28;;;;;;;;;;5117276;28;20038;-56
2022/12/26 08:31:56;;;;;;;3.67;1.88;;;;;;;;;;5117290;28;20023;-56
2022/12/26 08:34:22;;;;;;;4.22;2.42;;;;;;;;;;5117463;28;20457;-57
2022/12/26 08:36:50;;;;;;;4.63;4.13;;;;;;;;;;5117586;28;20381;-56
2022/12/26 08:39:16;;;;;;;4.18;2.40;;;;;;;;;;5117201;28;20034;-56
2022/12/26 08:41:42;;;;;;;4.50;2.70;;;;;;;;;;5116856;28;20545;-57
2022/12/26 08:44:10;;;;;;;3.20;2.10;;;;;;;;;;5117541;28;20027;-55
2022/12/26 08:46:36;;;;;;;2.85;1.92;;;;;;;;;;5117040;28;20020;-56
2022/12/26 08:49:02;;;;;;;2.55;1.77;;;;;;;;;;5116962;28;20393;-55
2022/12/26 08:51:28;;;;;;;4.18;2.20;;;;;;;;;;5117074;28;20020;-56
2022/12/26 08:53:54;;;;;;;4.05;2.33;;;;;;;;;;5117250;28;20367;-57
2022/12/26 08:56:21;;;;;;;3.90;2.95;;;;;;;;;;5117036;28;20023;-57
2022/12/26 08:58:48;;;;;;;4.18;2.30;;;;;;;;;;5117382;28;20032;-55
2022/12/26 09:01:19;;;;;;;7.00;2.88;;;;;;;;;;5115329;28;20024;-58
2022/12/26 09:03:45;;;;;;;7.07;2.70;;;;;;;;;;5117074;28;20069;-55
2022/12/26 09:06:12;;;;;;;6.97;2.78;;;;;;;;;;5117082;28;20082;-55
2022/12/26 09:08:39;;;;;;;3.85;2.65;;;;;;;;;;5116315;28;20380;-57
2022/12/26 09:11:07;;;;;;;4.40;2.88;;;;;;;;;;5117133;28;20062;-54
2022/12/26 09:13:34;;;;;;;5.15;3.38;;;;;;;;;;5117023;28;20039;-57
2022/12/26 09:16:04;;;;;;;5.70;2.35;;;;;;;;;;5117074;28;20449;-50
2022/12/26 09:18:30;;;;;;;5.60;2.78;;;;;;;;;;5116076;28;20027;-53
2022/12/26 09:20:59;;;;;;;3.63;2.25;;;;;;;;;;5116389;28;20031;-56
2022/12/26 09:23:25;;;;;;;3.53;2.10;;;;;;;;;;5117087;28;20024;-57
2022/12/26 09:25:51;;;;;;;3.72;2.35;;;;;;;;;;5116033;28;20023;-57
2022/12/26 09:28:17;;;;;;;3.15;1.90;;;;;;;;;;5116579;28;20103;-57
2022/12/26 09:30:43;;;;;;;4.18;2.72;;;;;;;;;;5116434;28;20088;-57
2022/12/26 09:33:09;;;;;;;4.07;2.50;;;;;;;;;;5116151;28;20073;-56
2022/12/26 09:35:39;;;;;;;3.75;2.33;;;;;;;;;;5116437;28;20384;-55
2022/12/26 09:38:05;;;;;;;3.53;2.38;;;;;;;;;;5115968;28;20119;-57
2022/12/26 09:40:34;;;;;;;4.22;2.60;;;;;;;;;;5115946;28;20097;-57
2022/12/26 09:43:17;;;;;;;4.25;2.50;;;;;;;;;;5115922;28;20024;-51
2022/12/26 09:45:46;;;;;;;4.75;2.50;;;;;;;;;;5116550;28;20035;-54
2022/12/26 09:48:18;;;;;;;4.45;2.15;;;;;;;;;;5115638;28;20027;-52
2022/12/26 09:50:44;;;;;;;3.22;2.45;;;;;;;;;;5116331;28;20027;-50
2022/12/26 09:53:15;;;;;;;3.60;2.40;;;;;;;;;;5116571;28;20084;-56
2022/12/26 09:55:52;;;;;;;3.15;2.33;;;;;;;;;;5116185;28;20028;-57
2022/12/26 09:58:19;;;;;;;3.33;2.35;;;;;;;;;;5116279;28;20026;-57
2022/12/26 10:00:52;;;;;;;3.53;2.63;;;;;;;;;;5116138;28;20027;-57
2022/12/26 10:03:19;;;;;;;3.85;2.33;;;;;;;;;;5115705;28;20484;-57
2022/12/26 10:06:00;;;;;;;4.32;3.13;;;;;;;;;;5116112;28;20031;-55
2022/12/26 10:08:33;;;;;;;3.13;2.28;;;;;;;;;;5115116;28;20024;-57
2022/12/26 10:11:01;;;;;;;4.57;3.10;;;;;;;;;;5115802;28;20114;-56
2022/12/26 10:13:29;;;;;;;8.80;4.88;;;;;;;;;;5115115;28;20027;-58
2022/12/26 10:16:03;;;;;;;5.13;2.95;;;;;;;;;;5115687;28;20020;-55
2022/12/26 10:18:53;;;;;;;5.38;3.05;;;;;;;;;;5115592;28;20024;-56
2022/12/26 10:21:22;;;;;;;3.33;2.30;;;;;;;;;;5115007;28;20030;-55
2022/12/26 10:23:54;;;;;;;3.03;2.25;;;;;;;;;;5115808;28;20357;-56
2022/12/26 10:26:25;;;;;;;4.07;2.85;;;;;;;;;;5115648;28;20089;-56
2022/12/26 10:29:05;;;;;;;4.80;2.67;;;;;;;;;;5115062;28;20357;-55
2022/12/26 10:31:34;;;;;;;6.28;2.63;;;;;;;;;;5115888;28;20023;-55
2022/12/26 10:34:03;;;;;;;5.35;2.28;;;;;;;;;;5114973;28;20031;-54
2022/12/26 10:36:32;;;;;;;2.95;2.30;;;;;;;;;;5114983;28;20039;-56
2022/12/26 10:38:58;;;;;;;7.78;2.55;;;;;;;;;;5114821;28;20036;-53
2022/12/26 10:41:44;;;;;;;3.88;2.70;;;;;;;;;;5115127;28;20031;-57
2022/12/26 10:44:11;;;;;;;3.30;2.17;;;;;;;;;;5115464;28;20051;-57
2022/12/26 10:46:38;;;;;;;5.72;2.58;;;;;;;;;;5114982;28;20376;-55
2022/12/26 10:49:04;;;;;;;4.03;2.30;;;;;;;;;;5114551;28;20070;-58
2022/12/26 10:51:30;;;;;;;5.15;2.72;;;;;;;;;;5114391;28;20051;-54
2022/12/26 10:53:56;;;;;;;4.25;3.28;;;;;;;;;;5096316;28;20028;-56
2022/12/26 10:56:24;;;;;;;4.75;3.20;;;;;;;;;;5114190;28;20027;-56
2022/12/26 10:58:59;;;;;;;4.90;2.85;;;;;;;;;;5114547;28;20027;-57
2022/12/26 11:01:28;;;;;;;3.67;2.63;;;;;;;;;;5114646;28;20031;-56
2022/12/26 11:03:55;;;;;;;4.90;3.28;;;;;;;;;;5114203;28;20061;-55
2022/12/26 11:06:22;;;;;;;5.45;3.63;;;;;;;;;;5114398;28;20027;-58
2022/12/26 11:08:49;;;;;;;3.35;2.17;;;;;;;;;;5114389;28;20032;-58
2022/12/26 11:11:25;;;;;;;4.60;3.30;;;;;;;;;;5114400;28;20453;-54
2022/12/26 11:13:55;;;;;;;4.65;3.72;;;;;;;;;;5114143;28;20107;-57
2022/12/26 11:16:31;;;;;;;4.13;2.35;;;;;;;;;;5114395;28;20030;-58
2022/12/26 11:18:57;;;;;;;2.63;1.88;;;;;;;;;;5114916;28;20024;-56
2022/12/26 11:21:25;;;;;;;3.47;1.92;;;;;;;;;;5114283;28;20153;-56
2022/12/26 11:23:52;;;;;;;4.47;2.00;;;;;;;;;;5113632;28;20469;-57
2022/12/26 11:26:28;;;;;;;4.30;2.30;;;;;;;;;;5113975;28;20032;-56
2022/12/26 11:29:11;;;;;;;2.83;2.10;;;;;;;;;;5114031;28;20137;-57
2022/12/26 11:31:38;;;;;;;2.17;1.35;;;;;;;;;;5114005;28;20361;-57
2022/12/26 11:34:07;;;;;;;2.40;1.33;;;;;;;;;;5114428;28;20020;-56
2022/12/26 11:36:36;;;;;;;3.90;2.05;;;;;;;;;;5114076;28;20023;-58
2022/12/26 11:39:04;;;;;;;2.28;1.30;;;;;;;;;;5113894;28;20119;-58
2022/12/26 11:41:42;;;;;;;3.85;2.08;;;;;;;;;;5113987;28;20457;-58
2022/12/26 11:44:11;;;;;;;3.05;1.83;;;;;;;;;;5113971;28;20034;-56
2022/12/26 11:46:37;;;;;;;3.10;2.00;;;;;;;;;;5114040;28;20371;-57
2022/12/26 11:49:04;;;;;;;3.67;2.40;;;;;;;;;;5114297;28;20061;-54
2022/12/26 11:51:33;;;;;;;4.13;2.17;;;;;;;;;;5113944;28;20055;-58
2022/12/26 11:54:32;;;;;;;6.03;2.17;;;;;;;;;;5114179;28;20470;-58
2022/12/26 11:57:11;;;;;;;3.25;2.05;;;;;;;;;;5058216;28;20262;-55
2022/12/26 11:59:37;;;;;;;3.10;2.10;;;;;;;;;;5113670;28;20035;-57
2022/12/26 12:02:12;;;;;;;3.08;2.05;;;;;;;;;;5113545;28;20043;-57
2022/12/26 12:04:38;;;;;;;2.97;1.75;;;;;;;;;;5113927;28;20103;-57
2022/12/26 12:07:28;;;;;;;3.50;2.03;;;;;;;;;;5113743;28;20054;-56
2022/12/26 12:09:57;;;;;;;2.13;1.30;;;;;;;;;;5101580;28;20074;-56
2022/12/26 12:12:23;;;;;;;3.00;1.35;;;;;;;;;;5113969;28;20338;-56
2022/12/26 12:15:03;;;;;;;2.78;1.27;;;;;;;;;;5114083;28;20080;-54
2022/12/26 12:17:35;;;;;;;3.47;1.77;;;;;;;;;;5113802;28;20024;-55
2022/12/26 12:20:12;;;;;;;4.80;1.23;;;;;;;;;;5114074;28;20063;-55
2022/12/26 12:23:10;;;;;;;1.60;0.90;;;;;;;;;;5113678;28;20037;-57
2022/12/26 12:25:55;;;;;;;2.72;1.13;;;;;;;;;;5057897;28;20115;-53
2022/12/26 12:28:50;;;;;;;2.50;1.35;;;;;;;;;;5114036;28;20365;-57
2022/12/26 12:31:23;;;;;;;1.75;1.00;;;;;;;;;;5091586;28;20056;-55
2022/12/26 12:33:56;;;;;;;1.73;1.02;;;;;;;;;;5113488;28;20453;-55
2022/12/26 12:36:28;;;;;;;3.50;1.55;;;;;;;;;;5115400;28;20072;-57
2022/12/26 12:39:04;;;;;;;1.38;0.90;;;;;;;;;;5117388;28;20073;-55
2022/12/26 12:41:38;;;;;;;1.73;1.23;;;;;;;;;;5117078;28;20031;-56
2022/12/26 12:44:10;;;;;;;2.10;1.00;;;;;;;;;;5117695;28;20047;-56
2022/12/26 12:46:36;;;;;;;1.77;0.90;;;;;;;;;;5116744;28;20492;-57
2022/12/26 12:49:11;;;;;;;2.13;1.27;;;;;;;;;;5117135;28;20031;-53
2022/12/26 12:51:37;;;;;;;1.30;0.65;;;;;;;;;;5117465;28;20221;-51
2022/12/26 12:54:06;;;;;;;1.25;0.60;;;;;;;;;;5116872;28;20059;-56
2022/12/26 12:56:44;;;;;;;1.33;0.68;;;;;;;;;;5116721;28;20408;-54
2022/12/26 12:59:16;;;;;;;2.17;0.80;;;;;;;;;;5116901;28;20381;-57
2022/12/26 13:01:43;;;;;;;1.08;0.70;;;;;;;;;;5117210;28;20055;-55
2022/12/26 13:04:14;;;;;;;1.02;0.57;;;;;;;;;;5117155;28;20027;-57
2022/12/26 13:06:43;;;;;;;1.48;0.68;;;;;;;;;;5117035;28;20035;-57
2022/12/26 13:09:15;;;;;;;0.98;0.60;;;;;;;;;;5116361;28;20031;-53
2022/12/26 13:11:45;;;;;;;1.88;0.90;;;;;;;;;;5116620;28;20051;-56
2022/12/26 13:14:16;;;;;;;0.85;0.32;;;;;;;;;;5117217;28;20023;-55
2022/12/26 13:16:52;;;;;;;1.05;0.43;;;;;;;;;;5116513;28;20024;-57
2022/12/26 13:19:21;;;;;;;0.50;0.20;;;;;;;;;;5116759;28;20023;-54
2022/12/26 13:21:48;;;;;;;2.80;0.68;;;;;;;;;;5116378;28;20047;-55
2022/12/26 13:24:26;;;;;;;1.13;0.60;;;;;;;;;;5116483;28;20024;-55
2022/12/26 13:27:11;;;;;;;0.88;0.50;;;;;;;;;;5116370;28;20039;-56
2022/12/26 13:29:39;;;;;;;0.95;0.20;;;;;;;;;;5116326;28;20035;-57
2022/12/26 13:32:14;;;;;;;1.02;0.50;;;;;;;;;;5116278;28;20020;-56
2022/12/26 13:34:42;;;;;;;1.73;0.95;;;;;;;;;;5115900;28;20504;-54
2022/12/26 13:37:28;;;;;;;1.10;0.52;;;;;;;;;;5116580;28;20028;-56
2022/12/26 13:39:54;;;;;;;3.92;0.30;;;;;;;;;;5115605;28;20024;-57
2022/12/26 13:45:37;;;;;;;0.95;0.47;;;;;;;;;;5115738;28;20027;-55
2022/12/26 13:48:16;;;;;;;1.45;0.68;;;;;;;;;;5093520;28;20036;-55
2022/12/26 13:50:48;;;;;;;0.57;0.30;;;;;;;;;;5116253;28;20084;-56
2022/12/26 13:53:26;;;;;;;1.25;0.52;;;;;;;;;;5115928;28;20034;-56
2022/12/26 13:55:53;;;;;;;1.13;0.50;;;;;;;;;;5115810;28;20031;-53
2022/12/26 13:58:22;;;;;;;1.50;0.55;;;;;;;;;;5115145;28;20035;-54
2022/12/26 14:00:49;;;;;;;1.95;1.15;;;;;;;;;;5115231;28;20028;-55
2022/12/26 14:03:22;;;;;;;1.13;0.70;;;;;;;;;;5116157;28;20047;-54
2022/12/26 14:05:57;;;;;;;1.88;0.77;;;;;;;;;;5115482;28;20054;-53
2022/12/26 14:08:41;;;;;;;1.65;0.70;;;;;;;;;;5116064;28;20026;-54
2022/12/26 14:11:11;;;;;;;1.42;0.88;;;;;;;;;;5115955;28;20044;-54
2022/12/26 14:13:49;;;;;;;0.95;0.47;;;;;;;;;;5115101;28;20484;-57
2022/12/26 14:16:23;;;;;;;1.45;0.40;;;;;;;;;;5115769;28;20449;-55
2022/12/26 14:18:55;;;;;;;0.80;0.40;;;;;;;;;;5115527;28;20512;-53
2022/12/26 14:21:21;;;;;;;1.48;0.45;;;;;;;;;;5115380;28;20029;-52
2022/12/26 14:23:52;;;;;;;2.05;0.93;;;;;;;;;;5115435;28;20089;-50
2022/12/26 14:26:35;;;;;;;5.05;1.10;;;;;;;;;;5116713;28;20058;-53
2022/12/26 14:29:01;;;;;;;0.65;0.30;;;;;;;;;;5115269;28;20457;-54
2022/12/26 14:31:47;;;;;;;0.93;0.50;;;;;;;;;;5114899;28;20023;-54
2022/12/26 14:34:32;;;;;;;1.27;0.60;;;;;;;;;;5114507;28;20039;-54
2022/12/26 14:37:01;;;;;;;1.85;1.17;;;;;;;;;;5114891;28;20152;-56
2022/12/26 14:39:36;;;;;;;1.95;1.05;;;;;;;;;;5114809;28;20035;-56
2022/12/26 14:44:53;;;;;;;1.25;0.57;;;;;;;;;;5114581;28;20050;-56
2022/12/26 14:47:38;;;;;;;1.65;0.80;;;;;;;;;;5115049;28;20027;-55
2022/12/26 14:50:23;;;;;;;1.98;0.73;;;;;;;;;;5114875;28;20119;-55
2022/12/26 14:52:49;;;;;;;0.80;0.45;;;;;;;;;;5114405;28;20027;-55
2022/12/26 14:55:33;;;;;;;0.90;0.40;;;;;;;;;;5114644;28;20023;-55
2022/12/26 14:58:19;;;;;;;1.13;0.63;;;;;;;;;;5096386;28;20088;-53
2022/12/26 15:00:45;;;;;;;1.17;0.60;;;;;;;;;;5113393;28;20032;-55
2022/12/26 15:03:18;;;;;;;1.08;0.63;;;;;;;;;;5114904;28;20088;-57
2022/12/26 15:05:46;;;;;;;2.17;0.60;;;;;;;;;;5114858;28;20028;-55
2022/12/26 15:08:34;;;;;;;1.17;0.70;;;;;;;;;;5114446;28;20535;-53
2022/12/26 15:11:12;;;;;;;1.35;0.40;;;;;;;;;;5114357;28;20032;-55
2022/12/26 15:13:53;;;;;;;1.17;0.65;;;;;;;;;;5114148;28;20118;-56
2022/12/26 15:16:28;;;;;;;1.25;0.68;;;;;;;;;;5114674;28;20026;-53
2022/12/26 15:19:07;;;;;;;1.02;0.75;;;;;;;;;;5114313;28;20042;-55
2022/12/26 15:21:51;;;;;;;4.53;0.88;;;;;;;;;;5114555;28;20080;-56
2022/12/26 15:24:23;;;;;;;7.03;1.65;;;;;;;;;;5114743;28;20457;-52
2022/12/26 15:27:00;;;;;;;1.40;0.65;;;;;;;;;;5114198;28;20477;-55
2022/12/26 15:29:36;;;;;;;1.48;0.55;;;;;;;;;;5114216;28;20035;-55
2022/12/26 15:32:21;;;;;;;0.80;0.40;;;;;;;;;;5114320;28;20031;-55
2022/12/26 15:34:49;;;;;;;1.60;0.80;;;;;;;;;;5114245;28;20031;-55
2022/12/26 15:37:24;;;;;;;1.20;0.63;;;;;;;;;;5114699;28;20020;-55
2022/12/26 15:39:58;;;;;;;1.88;0.63;;;;;;;;;;5114063;28;20036;-57
2022/12/26 15:42:41;;;;;;;1.10;0.47;;;;;;;;;;5114199;28;20031;-57
2022/12/26 15:45:13;;;;;;;0.90;0.47;;;;;;;;;;5114471;28;20362;-50
2022/12/26 15:47:54;;;;;;;1.52;0.75;;;;;;;;;;5114644;28;20024;-55
2022/12/26 15:50:29;;;;;;;1.08;0.60;;;;;;;;;;5113801;28;20082;-55
2022/12/26 15:53:15;;;;;;;1.10;0.60;;;;;;;;;;5114060;28;20023;-55
2022/12/26 15:55:44;;;;;;;1.35;0.50;;;;;;;;;;5096174;28;20047;-55
2022/12/26 15:58:29;;;;;;;0.82;0.43;;;;;;;;;;5113900;28;20483;-51
2022/12/26 16:00:55;;;;;;;1.10;0.60;;;;;;;;;;5113527;28;20047;-55
2022/12/26 16:03:44;;;;;;;1.35;0.45;;;;;;;;;;5113917;28;20052;-55
2022/12/26 16:06:19;;;;;;;0.80;0.40;;;;;;;;;;5082227;28;20230;-55
2022/12/26 16:08:45;;;;;;;1.13;0.65;;;;;;;;;;5113618;28;20028;-53
2022/12/26 16:11:17;;;;;;;0.63;0.30;;;;;;;;;;5115181;28;20084;-54
2022/12/26 16:13:51;;;;;;;1.02;0.57;;;;;;;;;;5117522;28;20058;-55
2022/12/26 16:16:28;;;;;;;1.77;0.77;;;;;;;;;;5117996;28;20072;-56
2022/12/26 16:18:54;;;;;;;1.27;0.82;;;;;;;;;;5117828;28;20031;-55
2022/12/26 16:24:07;;;;;;;1.67;0.95;;;;;;;;;;5117419;28;20070;-59
2022/12/26 16:26:38;;;;;;;1.70;0.70;;;;;;;;;;5117886;28;20031;-57
2022/12/26 16:29:04;;;;;;;;;;;;;;;;;;5118025;28;20066;-58
2022/12/26 16:31:30;;;;;;;1.05;0.43;;;;;;;;;;5117804;28;19954;-58
2022/12/26 16:33:58;;;;;;;1.52;0.85;;;;;;;;;;5117098;28;20513;-56
2022/12/26 16:36:25;;;;;;;2.67;1.00;;;;;;;;;;5116900;28;20024;-57
2022/12/26 16:38:52;;;;;;;1.92;0.90;;;;;;;;;;5117554;28;20456;-58
2022/12/26 16:41:20;;;;;;;1.27;0.63;;;;;;;;;;5117278;28;20027;-58
2022/12/26 16:43:46;;;;;;;1.55;1.15;;;;;;;;;;5116914;28;20074;-58
2022/12/26 16:46:13;;;;;;;1.88;1.13;;;;;;;;;;5116774;28;20457;-57
2022/12/26 16:48:39;;;;;;;1.10;0.65;;;;;;;;;;5117101;28;20056;-58
2022/12/26 16:51:06;;;;;;;2.65;1.10;;;;;;;;;;5116800;28;20077;-57
2022/12/26 16:53:35;;;;;;;1.80;0.90;;;;;;;;;;5116898;28;20032;-58
2022/12/26 16:56:10;;;;;;;4.03;1.58;;;;;;;;;;5116898;28;20023;-58
2022/12/26 16:58:36;;;;;;;2.78;1.73;;;;;;;;;;5116696;28;20451;-59
2022/12/26 17:01:13;;;;;;;4.45;1.83;;;;;;;;;;5116637;28;20380;-56
2022/12/26 17:03:39;;;;;;;2.72;1.40;;;;;;;;;;5116654;28;20035;-57
2022/12/26 17:06:11;;;;;;;1.85;0.95;;;;;;;;;;5117107;28;20108;-58
2022/12/26 17:08:45;;;;;;;3.72;1.75;;;;;;;;;;5116598;28;20024;-57
2022/12/26 17:11:11;;;;;;;2.15;1.10;;;;;;;;;;5116757;28;20046;-56
2022/12/26 17:13:37;;;;;;;4.50;2.33;;;;;;;;;;5116513;28;20035;-57
2022/12/26 17:16:09;;;;;;;3.20;2.38;;;;;;;;;;5116433;28;20477;-59
2022/12/26 17:18:35;;;;;;;3.05;1.65;;;;;;;;;;5116356;28;20032;-59